createdAt,value
2022-09-28T00:01:25.112Z,3.60
2022-09-28T00:03:54.654Z,3.03
2022-09-28T00:06:24.538Z,3.70
2022-09-28T00:08:51.974Z,3.95
2022-09-28T00:11:21.057Z,3.60
2022-09-28T00:13:52.647Z,3.83
2022-09-28T00:16:22.799Z,3.10
2022-09-28T00:18:51.168Z,3.47
2022-09-28T00:21:23.758Z,3.25
2022-09-28T00:24:17.233Z,3.15
2022-09-28T00:26:54.153Z,3.30
2022-09-28T00:29:24.009Z,3.20
2022-09-28T00:32:00.565Z,2.70
2022-09-28T00:34:28.374Z,2.67
2022-09-28T00:36:55.121Z,2.55
2022-09-28T00:39:22.090Z,3.22
2022-09-28T00:41:48.986Z,3.03
2022-09-28T00:44:37.045Z,3.30
2022-09-28T00:47:31.737Z,2.95
2022-09-28T00:50:01.745Z,3.00
2022-09-28T00:52:46.589Z,3.40
2022-09-28T00:55:17.201Z,2.60
2022-09-28T00:57:49.396Z,2.95
2022-09-28T01:00:16.819Z,2.80
2022-09-28T01:02:45.514Z,3.45
2022-09-28T01:05:13.849Z,2.78
2022-09-28T01:07:41.258Z,3.00
2022-09-28T01:10:08.873Z,2.45
2022-09-28T01:12:35.705Z,2.40
2022-09-28T01:15:05.620Z,2.97
2022-09-28T01:18:08.820Z,2.58
2022-09-28T01:20:54.147Z,2.30
2022-09-28T01:23:39.370Z,2.50
2022-09-28T01:26:31.402Z,3.00
2022-09-28T01:29:11.143Z,2.30
2022-09-28T01:31:44.462Z,2.55
2022-09-28T01:34:18.711Z,2.22
2022-09-28T01:36:52.000Z,2.40
2022-09-28T01:39:30.783Z,2.90
2022-09-28T01:42:02.859Z,2.53
2022-09-28T01:44:39.795Z,2.17
2022-09-28T01:47:11.679Z,2.30
2022-09-28T01:49:46.042Z,2.35
2022-09-28T01:52:19.361Z,2.30
2022-09-28T01:54:55.077Z,2.13
2022-09-28T01:57:49.785Z,2.00
2022-09-28T02:00:19.092Z,2.05
2022-09-28T02:02:55.638Z,2.42
2022-09-28T02:05:33.614Z,2.50
2022-09-28T02:08:28.512Z,2.08
2022-09-28T02:11:18.695Z,2.05
2022-09-28T02:13:56.824Z,1.77
2022-09-28T02:16:40.673Z,2.33
2022-09-28T02:19:18.051Z,1.92
2022-09-28T02:22:06.434Z,1.83
2022-09-28T02:24:40.875Z,1.77
2022-09-28T02:27:18.164Z,2.10
2022-09-28T02:29:44.994Z,1.88
2022-09-28T02:32:11.948Z,1.98
2022-09-28T02:34:38.958Z,2.22
2022-09-28T02:37:05.886Z,2.50
2022-09-28T02:39:32.680Z,1.77
2022-09-28T02:42:14.657Z,1.52
2022-09-28T02:44:47.178Z,1.70
2022-09-28T02:47:31.512Z,1.90
2022-09-28T02:50:06.976Z,1.63
2022-09-28T02:52:59.976Z,2.03
2022-09-28T02:55:32.719Z,1.33
2022-09-28T02:58:08.434Z,1.58
2022-09-28T03:00:44.849Z,1.67
2022-09-28T03:03:39.398Z,1.50
2022-09-28T03:06:24.212Z,1.40
2022-09-28T03:08:56.703Z,1.55
2022-09-28T03:11:32.085Z,1.33
2022-09-28T03:13:59.486Z,1.52
2022-09-28T03:16:27.624Z,1.67
2022-09-28T03:18:54.547Z,1.27
2022-09-28T03:21:21.367Z,1.35
2022-09-28T03:23:48.147Z,1.45
2022-09-28T03:26:16.948Z,1.33
2022-09-28T03:32:34.913Z,1.52
2022-09-28T03:35:01.871Z,1.35
2022-09-28T03:37:28.960Z,1.20
2022-09-28T03:39:55.732Z,1.52
2022-09-28T03:42:22.629Z,1.30
2022-09-28T03:44:49.429Z,1.35
2022-09-28T03:47:18.005Z,1.30
2022-09-28T03:49:45.675Z,1.67
2022-09-28T03:52:13.818Z,1.55
2022-09-28T03:54:42.943Z,1.27
2022-09-28T03:57:12.698Z,1.08
2022-09-28T03:59:39.483Z,1.20
2022-09-28T04:02:06.602Z,1.40
2022-09-28T04:04:33.525Z,1.20
2022-09-28T04:07:00.350Z,1.40
2022-09-28T04:09:27.190Z,1.30
2022-09-28T04:12:03.941Z,1.33
2022-09-28T04:14:31.350Z,1.40
2022-09-28T04:16:58.218Z,1.75
2022-09-28T04:19:25.357Z,1.45
2022-09-28T04:21:52.314Z,1.73
2022-09-28T04:24:20.357Z,1.73
2022-09-28T04:26:47.282Z,1.30
2022-09-28T04:29:17.094Z,1.48
2022-09-28T04:31:48.183Z,1.08
2022-09-28T04:34:17.647Z,1.10
2022-09-28T04:36:45.209Z,1.25
2022-09-28T04:39:14.202Z,1.30
2022-09-28T04:41:42.099Z,1.35
2022-09-28T04:44:09.610Z,1.23
2022-09-28T04:46:36.740Z,0.93
2022-09-28T04:49:03.952Z,1.20
2022-09-28T04:51:31.727Z,1.35
2022-09-28T04:53:59.020Z,1.30
2022-09-28T04:56:25.844Z,1.20
2022-09-28T04:58:53.009Z,0.95
2022-09-28T05:01:23.576Z,1.30
2022-09-28T05:03:54.117Z,1.02
2022-09-28T05:08:49.599Z,1.27
2022-09-28T05:11:16.428Z,1.42
2022-09-28T05:13:45.566Z,1.35
2022-09-28T05:16:14.266Z,1.02
2022-09-28T05:18:41.235Z,1.50
2022-09-28T05:21:12.885Z,1.25
2022-09-28T05:23:40.986Z,0.95
2022-09-28T05:26:07.927Z,1.27
2022-09-28T05:28:34.933Z,1.25
2022-09-28T05:31:05.708Z,1.00
2022-09-28T05:33:33.606Z,1.13
2022-09-28T05:36:01.813Z,0.88
2022-09-28T05:38:30.096Z,1.05
2022-09-28T05:40:57.333Z,0.85
2022-09-28T05:43:24.442Z,0.98
2022-09-28T05:45:55.371Z,0.85
2022-09-28T05:48:23.193Z,1.10
2022-09-28T05:50:53.336Z,0.70
2022-09-28T05:55:47.188Z,1.20
2022-09-28T05:58:14.242Z,1.23
2022-09-28T06:00:41.037Z,1.13
2022-09-28T06:03:13.156Z,1.15
2022-09-28T06:05:40.181Z,1.05
2022-09-28T06:08:10.266Z,1.25
2022-09-28T06:13:03.942Z,0.70
2022-09-28T06:15:32.720Z,0.70
2022-09-28T06:18:00.547Z,1.00
2022-09-28T06:20:28.976Z,1.08
2022-09-28T06:22:56.075Z,0.98
2022-09-28T06:25:24.760Z,1.48
2022-09-28T06:28:06.626Z,0.80
2022-09-28T06:30:35.044Z,0.93
2022-09-28T06:33:02.445Z,1.02
2022-09-28T06:35:30.984Z,0.85
2022-09-28T06:37:59.997Z,0.90
2022-09-28T06:40:27.797Z,0.75
2022-09-28T06:43:10.153Z,0.60
2022-09-28T06:48:05.562Z,0.80
2022-09-28T06:50:37.590Z,0.73
2022-09-28T06:53:12.177Z,0.85
2022-09-28T06:55:46.096Z,0.60
2022-09-28T06:58:16.083Z,0.90
2022-09-28T07:03:21.632Z,0.73
2022-09-28T07:05:54.062Z,0.65
2022-09-28T07:08:26.009Z,0.80
2022-09-28T07:10:56.747Z,0.63
2022-09-28T07:13:47.773Z,0.77
2022-09-28T07:16:12.863Z,0.68
2022-09-28T07:18:40.470Z,0.40
2022-09-28T07:21:08.359Z,0.57
2022-09-28T07:23:47.044Z,0.57
2022-09-28T07:26:23.076Z,0.93
2022-09-28T07:28:51.090Z,0.73
2022-09-28T07:31:18.019Z,0.88
2022-09-28T07:33:47.162Z,0.77
2022-09-28T07:36:17.861Z,0.60
2022-09-28T07:38:44.646Z,0.60
2022-09-28T07:41:11.454Z,0.50
2022-09-28T07:43:41.452Z,0.57
2022-09-28T07:48:41.215Z,0.70
2022-09-28T07:51:08.947Z,0.60
2022-09-28T07:53:35.917Z,0.50
2022-09-28T07:56:09.016Z,0.65
2022-09-28T07:58:39.729Z,0.50
2022-09-28T08:01:11.823Z,0.70
2022-09-28T08:03:39.677Z,0.40
2022-09-28T08:06:11.138Z,0.60
2022-09-28T08:08:38.554Z,0.55
2022-09-28T08:11:07.161Z,0.43
2022-09-28T08:13:33.931Z,0.60
2022-09-28T08:16:01.790Z,0.40
2022-09-28T08:18:28.957Z,0.75
2022-09-28T08:21:14.102Z,0.40
2022-09-28T08:23:41.108Z,0.63
2022-09-28T08:26:11.015Z,0.40
2022-09-28T08:28:40.448Z,0.40
2022-09-28T08:31:07.466Z,0.35
2022-09-28T08:33:35.203Z,0.43
2022-09-28T08:36:04.345Z,0.45
2022-09-28T08:38:32.153Z,0.70
2022-09-28T08:41:26.949Z,0.40
2022-09-28T08:44:12.604Z,0.40
2022-09-28T08:46:45.467Z,0.30
2022-09-28T08:49:29.731Z,0.73
2022-09-28T08:52:05.716Z,1.00
2022-09-28T08:54:56.896Z,1.30
2022-09-28T08:57:29.199Z,1.48
2022-09-28T08:59:58.540Z,1.55
2022-09-28T09:02:39.261Z,1.92
2022-09-28T09:05:19.998Z,1.45
2022-09-28T09:08:25.140Z,1.58
2022-09-28T09:11:12.295Z,1.45
2022-09-28T09:13:54.173Z,1.75
2022-09-28T09:16:42.333Z,1.45
2022-09-28T09:19:09.262Z,1.48
2022-09-28T09:21:56.006Z,1.42
2022-09-28T09:24:31.247Z,1.33
2022-09-28T09:27:21.131Z,1.65
2022-09-28T09:29:53.753Z,1.33
2022-09-28T09:32:34.180Z,1.23
2022-09-28T09:35:09.846Z,0.90
2022-09-28T09:37:42.760Z,1.08
2022-09-28T09:40:26.893Z,1.10
2022-09-28T09:43:05.014Z,0.90
2022-09-28T09:45:42.303Z,0.90
2022-09-28T09:48:21.477Z,0.93
2022-09-28T09:50:59.387Z,1.23
2022-09-28T09:53:38.619Z,0.73
2022-09-28T09:56:17.541Z,0.80
2022-09-28T09:58:50.183Z,0.85
2022-09-28T10:01:21.379Z,0.82
2022-09-28T10:03:49.448Z,0.90
2022-09-28T10:06:20.456Z,0.93
2022-09-28T10:09:01.245Z,1.02
2022-09-28T10:11:36.119Z,0.73
2022-09-28T10:14:04.582Z,0.60
2022-09-28T10:16:33.249Z,0.70
2022-09-28T10:19:00.924Z,1.17
2022-09-28T10:21:28.838Z,0.63
2022-09-28T10:23:58.699Z,0.80
2022-09-28T10:26:38.706Z,0.90
2022-09-28T10:29:14.686Z,1.13
2022-09-28T10:31:48.944Z,0.90
2022-09-28T10:34:26.449Z,0.55
2022-09-28T10:36:55.955Z,0.70
2022-09-28T10:39:42.403Z,0.63
2022-09-28T10:42:11.681Z,0.50
2022-09-28T10:44:51.920Z,0.70
2022-09-28T10:47:22.241Z,0.90
2022-09-28T10:49:51.131Z,0.73
2022-09-28T10:52:38.032Z,0.52
2022-09-28T10:55:26.456Z,0.57
2022-09-28T10:57:53.317Z,0.60
2022-09-28T11:00:41.641Z,0.45
2022-09-28T11:03:26.669Z,0.55
2022-09-28T11:06:06.089Z,0.52
2022-09-28T11:08:41.934Z,0.40
2022-09-28T11:11:17.543Z,0.70
2022-09-28T11:13:47.582Z,0.50
2022-09-28T11:16:29.296Z,0.52
2022-09-28T11:18:58.553Z,0.70
2022-09-28T11:21:32.705Z,0.60
2022-09-28T11:24:19.412Z,0.43
2022-09-28T11:26:50.280Z,0.88
2022-09-28T11:29:21.402Z,0.50
2022-09-28T11:31:48.552Z,0.40
2022-09-28T11:34:36.449Z,0.70
2022-09-28T11:37:22.048Z,0.40
2022-09-28T11:39:51.862Z,0.40
2022-09-28T11:42:24.902Z,0.40
2022-09-28T11:45:04.331Z,0.40
2022-09-28T11:47:57.696Z,0.68
2022-09-28T11:50:46.730Z,0.70
2022-09-28T11:53:13.485Z,0.93
2022-09-28T11:55:46.133Z,0.73
2022-09-28T11:58:22.802Z,0.77
2022-09-28T12:01:04.007Z,0.82
2022-09-28T12:03:45.804Z,0.70
2022-09-28T12:06:22.213Z,0.77
2022-09-28T12:08:54.997Z,0.73
2022-09-28T12:11:27.135Z,0.43
2022-09-28T12:13:57.536Z,0.60
2022-09-28T12:17:04.309Z,0.73
2022-09-28T12:19:30.038Z,0.60
2022-09-28T12:22:00.977Z,0.73
2022-09-28T12:24:40.645Z,0.50
2022-09-28T12:27:14.869Z,0.73
2022-09-28T12:29:49.619Z,0.43
2022-09-28T12:32:53.328Z,0.63
2022-09-28T12:35:20.083Z,0.82
2022-09-28T12:38:24.515Z,0.40
2022-09-28T12:41:16.674Z,0.40
2022-09-28T12:44:05.975Z,0.50
2022-09-28T12:47:21.869Z,0.52
2022-09-28T12:50:44.777Z,0.40
2022-09-28T12:53:30.395Z,0.50
2022-09-28T12:56:00.240Z,0.65
2022-09-28T12:58:29.982Z,0.50
2022-09-28T13:01:02.597Z,0.63
2022-09-28T13:03:51.000Z,0.73
2022-09-28T13:06:36.554Z,0.47
2022-09-28T13:09:16.726Z,0.55
2022-09-28T13:11:58.785Z,0.40
2022-09-28T13:14:25.553Z,0.70
2022-09-28T13:17:17.216Z,0.50
2022-09-28T13:20:04.222Z,0.40
2022-09-28T13:22:49.919Z,0.40
2022-09-28T13:25:20.579Z,0.73
2022-09-28T13:28:02.939Z,0.43
2022-09-28T13:30:31.112Z,0.40
2022-09-28T13:33:00.817Z,0.52
2022-09-28T13:35:28.581Z,0.30
2022-09-28T13:38:20.908Z,0.32
2022-09-28T13:41:06.256Z,0.43
2022-09-28T13:44:11.024Z,0.77
2022-09-28T13:46:49.713Z,0.30
2022-09-28T13:49:39.608Z,0.28
2022-09-28T13:52:13.523Z,0.60
2022-09-28T13:55:00.285Z,0.30
2022-09-28T13:57:37.291Z,0.50
2022-09-28T14:00:11.934Z,0.75
2022-09-28T14:02:49.310Z,0.60
2022-09-28T14:05:41.245Z,0.43
2022-09-28T14:08:23.155Z,0.35
2022-09-28T14:11:17.209Z,0.40
2022-09-28T14:13:43.963Z,0.40
2022-09-28T14:16:21.979Z,0.38
2022-09-28T14:19:02.809Z,0.40
2022-09-28T14:22:00.462Z,0.43
2022-09-28T14:24:42.240Z,0.30
2022-09-28T14:27:09.182Z,0.63
2022-09-28T14:29:38.236Z,0.40
2022-09-28T14:32:08.195Z,0.30
2022-09-28T14:34:46.897Z,0.40
2022-09-28T14:37:52.709Z,0.30
2022-09-28T14:40:39.770Z,0.50
2022-09-28T14:43:35.856Z,0.55
2022-09-28T14:46:11.544Z,0.50
2022-09-28T14:48:58.289Z,0.43
2022-09-28T14:51:26.229Z,0.30
2022-09-28T14:54:13.151Z,0.52
2022-09-28T14:56:45.564Z,0.40
2022-09-28T14:59:17.882Z,0.52
2022-09-28T15:02:01.093Z,0.30
2022-09-28T15:04:30.634Z,0.57
2022-09-28T15:07:00.308Z,0.50
2022-09-28T15:09:34.737Z,0.40
2022-09-28T15:12:02.384Z,0.50
2022-09-28T15:14:32.114Z,0.55
2022-09-28T15:17:03.760Z,0.45
2022-09-28T15:19:57.400Z,0.63
2022-09-28T15:22:24.293Z,0.60
2022-09-28T15:25:15.427Z,0.52
2022-09-28T15:27:42.301Z,0.50
2022-09-28T15:30:33.080Z,0.50
2022-09-28T15:33:20.390Z,0.60
2022-09-28T15:36:02.040Z,0.75
2022-09-28T15:38:30.066Z,0.70
2022-09-28T15:40:57.502Z,0.68
2022-09-28T15:43:33.216Z,0.70
2022-09-28T15:46:18.473Z,0.60
2022-09-28T15:48:55.342Z,0.63
2022-09-28T15:51:24.177Z,0.90
2022-09-28T15:53:58.362Z,0.90
2022-09-28T15:56:26.272Z,0.80
2022-09-28T15:59:23.222Z,0.90
2022-09-28T16:02:25.616Z,1.00
2022-09-28T16:04:55.232Z,0.80
2022-09-28T16:07:28.082Z,0.98
2022-09-28T16:10:05.280Z,1.08
2022-09-28T16:12:38.225Z,1.25
2022-09-28T16:15:25.504Z,0.95
2022-09-28T16:17:56.016Z,1.00
2022-09-28T16:20:38.210Z,1.50
2022-09-28T16:23:33.226Z,1.10
2022-09-28T16:26:05.524Z,1.33
2022-09-28T16:52:37.543Z,1.60
2022-09-28T16:55:39.682Z,1.42
2022-09-28T16:58:04.898Z,2.42
